sensor_id;sensor_type;location;lat;lon;timestamp;P1;durP1;ratioP1;P2;durP2;ratioP2
22711;SDS011;11523;50.390;8.072;2023-06-01T03:15:52;4.85;;;3.63;;
22711;SDS011;11523;50.390;8.072;2023-06-01T03:22:02;4.63;;;3.28;;
22711;SDS011;11523;50.390;8.072;2023-06-01T03:31:02;7.65;;;3.78;;
22711;SDS011;11523;50.390;8.072;2023-06-01T03:34:00;6.03;;;3.47;;
22711;SDS011;11523;50.390;8.072;2023-06-01T03:45:44;9.80;;;3.75;;
22711;SDS011;11523;50.390;8.072;2023-06-01T04:10:01;7.93;;;3.78;;
22711;SDS011;11523;50.390;8.072;2023-06-01T04:13:02;6.63;;;3.72;;
22711;SDS011;11523;50.390;8.072;2023-06-01T04:16:02;6.57;;;3.72;;
22711;SDS011;11523;50.390;8.072;2023-06-01T04:34:31;8.80;;;3.70;;
22711;SDS011;11523;50.390;8.072;2023-06-01T04:36:57;8.82;;;3.60;;
22711;SDS011;11523;50.390;8.072;2023-06-01T04:39:24;7.43;;;3.45;;
22711;SDS011;11523;50.390;8.072;2023-06-01T04:41:50;9.13;;;3.72;;
22711;SDS011;11523;50.390;8.072;2023-06-01T04:44:18;4.88;;;3.67;;
22711;SDS011;11523;50.390;8.072;2023-06-01T04:46:46;6.90;;;3.83;;
22711;SDS011;11523;50.390;8.072;2023-06-01T04:49:14;8.15;;;4.18;;
22711;SDS011;11523;50.390;8.072;2023-06-01T04:51:41;9.52;;;3.88;;
22711;SDS011;11523;50.390;8.072;2023-06-01T04:54:07;11.35;;;4.07;;
22711;SDS011;11523;50.390;8.072;2023-06-01T04:56:34;5.35;;;3.88;;
22711;SDS011;11523;50.390;8.072;2023-06-01T04:59:00;7.38;;;3.83;;
22711;SDS011;11523;50.390;8.072;2023-06-01T05:01:26;7.68;;;3.92;;
22711;SDS011;11523;50.390;8.072;2023-06-01T05:03:54;6.82;;;3.80;;
22711;SDS011;11523;50.390;8.072;2023-06-01T05:06:21;9.20;;;3.90;;
22711;SDS011;11523;50.390;8.072;2023-06-01T05:08:47;8.45;;;3.75;;
22711;SDS011;11523;50.390;8.072;2023-06-01T05:11:13;4.78;;;3.80;;
22711;SDS011;11523;50.390;8.072;2023-06-01T05:13:40;8.18;;;4.43;;
22711;SDS011;11523;50.390;8.072;2023-06-01T05:16:07;9.10;;;4.32;;
22711;SDS011;11523;50.390;8.072;2023-06-01T05:18:33;6.05;;;4.10;;
22711;SDS011;11523;50.390;8.072;2023-06-01T05:20:59;7.65;;;4.22;;
22711;SDS011;11523;50.390;8.072;2023-06-01T05:23:25;7.13;;;4.07;;
22711;SDS011;11523;50.390;8.072;2023-06-01T05:25:52;11.43;;;4.25;;
22711;SDS011;11523;50.390;8.072;2023-06-01T05:28:19;9.75;;;4.00;;
22711;SDS011;11523;50.390;8.072;2023-06-01T05:30:46;10.43;;;4.68;;
22711;SDS011;11523;50.390;8.072;2023-06-01T05:33:12;8.00;;;4.35;;
22711;SDS011;11523;50.390;8.072;2023-06-01T05:35:38;6.53;;;4.35;;
22711;SDS011;11523;50.390;8.072;2023-06-01T05:38:04;11.88;;;4.72;;
22711;SDS011;11523;50.390;8.072;2023-06-01T05:40:30;7.53;;;4.47;;
22711;SDS011;11523;50.390;8.072;2023-06-01T05:42:55;10.73;;;4.85;;
22711;SDS011;11523;50.390;8.072;2023-06-01T05:45:21;7.10;;;4.50;;
22711;SDS011;11523;50.390;8.072;2023-06-01T05:47:47;10.27;;;4.45;;
22711;SDS011;11523;50.390;8.072;2023-06-01T05:50:13;8.52;;;4.55;;
22711;SDS011;11523;50.390;8.072;2023-06-01T05:52:39;8.38;;;4.57;;
22711;SDS011;11523;50.390;8.072;2023-06-01T05:55:07;9.50;;;4.68;;
22711;SDS011;11523;50.390;8.072;2023-06-01T05:57:34;8.55;;;4.78;;
22711;SDS011;11523;50.390;8.072;2023-06-01T06:00:00;9.60;;;4.35;;
22711;SDS011;11523;50.390;8.072;2023-06-01T06:02:25;8.25;;;4.38;;
22711;SDS011;11523;50.390;8.072;2023-06-01T06:04:51;10.70;;;4.35;;
22711;SDS011;11523;50.390;8.072;2023-06-01T06:07:17;10.05;;;4.25;;
22711;SDS011;11523;50.390;8.072;2023-06-01T06:09:43;8.57;;;4.43;;
22711;SDS011;11523;50.390;8.072;2023-06-01T06:12:09;12.27;;;4.72;;
22711;SDS011;11523;50.390;8.072;2023-06-01T06:14:35;9.20;;;4.40;;
22711;SDS011;11523;50.390;8.072;2023-06-01T06:17:01;8.85;;;4.43;;
22711;SDS011;11523;50.390;8.072;2023-06-01T06:19:27;11.20;;;4.93;;
22711;SDS011;11523;50.390;8.072;2023-06-01T06:21:53;9.48;;;4.50;;
22711;SDS011;11523;50.390;8.072;2023-06-01T06:24:19;9.77;;;4.68;;
22711;SDS011;11523;50.390;8.072;2023-06-01T06:26:45;11.25;;;4.72;;
22711;SDS011;11523;50.390;8.072;2023-06-01T06:29:12;10.07;;;4.32;;
22711;SDS011;11523;50.390;8.072;2023-06-01T06:31:38;8.15;;;4.47;;
22711;SDS011;11523;50.390;8.072;2023-06-01T06:34:04;10.15;;;4.47;;
22711;SDS011;11523;50.390;8.072;2023-06-01T06:36:30;7.50;;;4.53;;
22711;SDS011;11523;50.390;8.072;2023-06-01T06:38:56;8.18;;;4.18;;
22711;SDS011;11523;50.390;8.072;2023-06-01T06:41:22;7.95;;;4.25;;
22711;SDS011;11523;50.390;8.072;2023-06-01T06:43:48;9.45;;;4.20;;
22711;SDS011;11523;50.390;8.072;2023-06-01T06:46:14;8.80;;;4.13;;
22711;SDS011;11523;50.390;8.072;2023-06-01T06:48:40;11.32;;;4.57;;
22711;SDS011;11523;50.390;8.072;2023-06-01T06:51:06;9.07;;;3.78;;
22711;SDS011;11523;50.390;8.072;2023-06-01T06:53:32;13.18;;;4.20;;
22711;SDS011;11523;50.390;8.072;2023-06-01T06:55:58;11.35;;;4.18;;
22711;SDS011;11523;50.390;8.072;2023-06-01T06:58:24;8.02;;;4.30;;
22711;SDS011;11523;50.390;8.072;2023-06-01T07:00:50;9.88;;;4.18;;
22711;SDS011;11523;50.390;8.072;2023-06-01T07:03:16;7.88;;;4.05;;
22711;SDS011;11523;50.390;8.072;2023-06-01T07:05:42;7.95;;;3.88;;
22711;SDS011;11523;50.390;8.072;2023-06-01T07:08:10;9.68;;;4.03;;
22711;SDS011;11523;50.390;8.072;2023-06-01T07:10:36;5.65;;;4.00;;
22711;SDS011;11523;50.390;8.072;2023-06-01T07:13:02;10.25;;;4.07;;
22711;SDS011;11523;50.390;8.072;2023-06-01T07:15:28;8.63;;;4.28;;
22711;SDS011;11523;50.390;8.072;2023-06-01T07:17:54;9.43;;;4.43;;
22711;SDS011;11523;50.390;8.072;2023-06-01T07:20:20;8.77;;;4.40;;
22711;SDS011;11523;50.390;8.072;2023-06-01T07:22:46;9.10;;;4.15;;
22711;SDS011;11523;50.390;8.072;2023-06-01T07:25:14;13.02;;;4.57;;
22711;SDS011;11523;50.390;8.072;2023-06-01T07:27:40;6.10;;;3.42;;
22711;SDS011;11523;50.390;8.072;2023-06-01T07:30:08;8.43;;;3.83;;
22711;SDS011;11523;50.390;8.072;2023-06-01T07:32:35;6.07;;;3.33;;
22711;SDS011;11523;50.390;8.072;2023-06-01T07:35:01;7.50;;;3.60;;
22711;SDS011;11523;50.390;8.072;2023-06-01T07:37:27;8.00;;;3.55;;
22711;SDS011;11523;50.390;8.072;2023-06-01T07:39:54;6.28;;;3.60;;
22711;SDS011;11523;50.390;8.072;2023-06-01T07:42:20;8.68;;;4.18;;
22711;SDS011;11523;50.390;8.072;2023-06-01T07:44:46;12.35;;;4.05;;
22711;SDS011;11523;50.390;8.072;2023-06-01T07:47:12;9.52;;;4.07;;
22711;SDS011;11523;50.390;8.072;2023-06-01T07:49:38;5.30;;;3.67;;
22711;SDS011;11523;50.390;8.072;2023-06-01T07:52:04;10.05;;;3.50;;
22711;SDS011;11523;50.390;8.072;2023-06-01T07:54:30;6.55;;;3.97;;
22711;SDS011;11523;50.390;8.072;2023-06-01T07:56:57;7.05;;;3.33;;
22711;SDS011;11523;50.390;8.072;2023-06-01T07:59:23;7.47;;;3.55;;
22711;SDS011;11523;50.390;8.072;2023-06-01T08:01:49;9.02;;;3.63;;
22711;SDS011;11523;50.390;8.072;2023-06-01T08:04:16;9.07;;;3.25;;
22711;SDS011;11523;50.390;8.072;2023-06-01T08:06:45;7.30;;;3.70;;
22711;SDS011;11523;50.390;8.072;2023-06-01T08:09:11;8.20;;;3.38;;
22711;SDS011;11523;50.390;8.072;2023-06-01T08:11:37;8.93;;;3.75;;
22711;SDS011;11523;50.390;8.072;2023-06-01T08:14:03;6.07;;;3.50;;
22711;SDS011;11523;50.390;8.072;2023-06-01T08:16:32;5.80;;;3.35;;
22711;SDS011;11523;50.390;8.072;2023-06-01T08:18:58;8.38;;;3.90;;
22711;SDS011;11523;50.390;8.072;2023-06-01T08:21:24;8.48;;;3.50;;
22711;SDS011;11523;50.390;8.072;2023-06-01T08:23:50;14.00;;;4.47;;
22711;SDS011;11523;50.390;8.072;2023-06-01T08:26:18;10.02;;;3.60;;
22711;SDS011;11523;50.390;8.072;2023-06-01T08:28:44;5.68;;;3.75;;
22711;SDS011;11523;50.390;8.072;2023-06-01T08:31:16;9.68;;;3.67;;
22711;SDS011;11523;50.390;8.072;2023-06-01T08:33:42;8.10;;;4.07;;
22711;SDS011;11523;50.390;8.072;2023-06-01T08:36:08;6.03;;;3.47;;
22711;SDS011;11523;50.390;8.072;2023-06-01T08:38:34;8.85;;;3.30;;
22711;SDS011;11523;50.390;8.072;2023-06-01T08:41:01;6.97;;;3.60;;
22711;SDS011;11523;50.390;8.072;2023-06-01T08:43:30;8.40;;;3.13;;
22711;SDS011;11523;50.390;8.072;2023-06-01T08:45:58;7.07;;;3.42;;
22711;SDS011;11523;50.390;8.072;2023-06-01T08:48:25;11.35;;;3.20;;
22711;SDS011;11523;50.390;8.072;2023-06-01T08:50:53;10.43;;;3.50;;
22711;SDS011;11523;50.390;8.072;2023-06-01T08:53:19;7.85;;;3.15;;
22711;SDS011;11523;50.390;8.072;2023-06-01T08:55:53;9.07;;;3.40;;
22711;SDS011;11523;50.390;8.072;2023-06-01T08:58:19;7.95;;;3.30;;
22711;SDS011;11523;50.390;8.072;2023-06-01T09:00:48;6.35;;;3.40;;
22711;SDS011;11523;50.390;8.072;2023-06-01T09:03:21;8.55;;;3.30;;
22711;SDS011;11523;50.390;8.072;2023-06-01T09:05:47;7.82;;;3.17;;
22711;SDS011;11523;50.390;8.072;2023-06-01T09:08:13;11.55;;;3.60;;
22711;SDS011;11523;50.390;8.072;2023-06-01T09:10:39;7.57;;;3.00;;
22711;SDS011;11523;50.390;8.072;2023-06-01T09:13:05;3.78;;;3.20;;
22711;SDS011;11523;50.390;8.072;2023-06-01T09:15:31;4.47;;;3.15;;
22711;SDS011;11523;50.390;8.072;2023-06-01T09:18:04;6.93;;;3.28;;
22711;SDS011;11523;50.390;8.072;2023-06-01T09:20:30;7.93;;;3.33;;
22711;SDS011;11523;50.390;8.072;2023-06-01T09:22:57;8.50;;;3.75;;
22711;SDS011;11523;50.390;8.072;2023-06-01T09:25:26;6.55;;;3.35;;
22711;SDS011;11523;50.390;8.072;2023-06-01T09:27:53;4.80;;;3.00;;
22711;SDS011;11523;50.390;8.072;2023-06-01T09:30:20;6.07;;;3.00;;
22711;SDS011;11523;50.390;8.072;2023-06-01T09:32:46;8.60;;;3.35;;
22711;SDS011;11523;50.390;8.072;2023-06-01T09:35:15;4.78;;;3.15;;
22711;SDS011;11523;50.390;8.072;2023-06-01T09:37:53;6.05;;;3.00;;
22711;SDS011;11523;50.390;8.072;2023-06-01T09:40:20;6.53;;;3.17;;
22711;SDS011;11523;50.390;8.072;2023-06-01T09:42:47;5.28;;;3.00;;
22711;SDS011;11523;50.390;8.072;2023-06-01T09:45:16;6.07;;;3.35;;
22711;SDS011;11523;50.390;8.072;2023-06-01T09:47:42;11.80;;;3.45;;
22711;SDS011;11523;50.390;8.072;2023-06-01T09:50:08;10.23;;;3.83;;
22711;SDS011;11523;50.390;8.072;2023-06-01T09:52:34;9.90;;;3.78;;
22711;SDS011;11523;50.390;8.072;2023-06-01T09:55:08;8.43;;;3.35;;
22711;SDS011;11523;50.390;8.072;2023-06-01T09:57:34;5.97;;;3.60;;
22711;SDS011;11523;50.390;8.072;2023-06-01T10:00:01;7.63;;;3.53;;
22711;SDS011;11523;50.390;8.072;2023-06-01T10:02:33;8.73;;;4.00;;
22711;SDS011;11523;50.390;8.072;2023-06-01T10:04:59;6.53;;;3.15;;
22711;SDS011;11523;50.390;8.072;2023-06-01T10:07:26;6.95;;;2.97;;
22711;SDS011;11523;50.390;8.072;2023-06-01T10:09:54;5.60;;;3.45;;
22711;SDS011;11523;50.390;8.072;2023-06-01T10:12:21;9.23;;;3.58;;
22711;SDS011;11523;50.390;8.072;2023-06-01T10:14:53;9.07;;;3.28;;
22711;SDS011;11523;50.390;8.072;2023-06-01T10:17:19;6.43;;;3.33;;
22711;SDS011;11523;50.390;8.072;2023-06-01T10:19:45;8.02;;;3.30;;
22711;SDS011;11523;50.390;8.072;2023-06-01T10:22:11;5.25;;;3.03;;
22711;SDS011;11523;50.390;8.072;2023-06-01T10:24:38;8.98;;;3.55;;
22711;SDS011;11523;50.390;8.072;2023-06-01T10:27:19;7.93;;;3.38;;
22711;SDS011;11523;50.390;8.072;2023-06-01T10:29:48;8.88;;;3.03;;
22711;SDS011;11523;50.390;8.072;2023-06-01T10:35:00;8.20;;;3.47;;
22711;SDS011;11523;50.390;8.072;2023-06-01T10:37:26;6.13;;;2.88;;
22711;SDS011;11523;50.390;8.072;2023-06-01T10:39:52;7.32;;;3.30;;
22711;SDS011;11523;50.390;8.072;2023-06-01T10:44:48;6.35;;;3.47;;
22711;SDS011;11523;50.390;8.072;2023-06-01T10:57:40;8.70;;;3.35;;
22711;SDS011;11523;50.390;8.072;2023-06-01T11:02:59;6.63;;;2.90;;
22711;SDS011;11523;50.390;8.072;2023-06-01T11:08:03;5.45;;;3.25;;
22711;SDS011;11523;50.390;8.072;2023-06-01T11:21:10;8.70;;;2.70;;
22711;SDS011;11523;50.390;8.072;2023-06-01T11:23:38;7.47;;;3.13;;
22711;SDS011;11523;50.390;8.072;2023-06-01T11:26:05;3.58;;;2.30;;
22711;SDS011;11523;50.390;8.072;2023-06-01T11:28:31;6.22;;;2.85;;
22711;SDS011;11523;50.390;8.072;2023-06-01T11:30:58;4.68;;;2.85;;
22711;SDS011;11523;50.390;8.072;2023-06-01T11:33:33;4.45;;;2.53;;
22711;SDS011;11523;50.390;8.072;2023-06-01T11:36:09;8.18;;;2.85;;
22711;SDS011;11523;50.390;8.072;2023-06-01T11:38:40;6.85;;;2.88;;
22711;SDS011;11523;50.390;8.072;2023-06-01T11:41:06;5.15;;;2.90;;
22711;SDS011;11523;50.390;8.072;2023-06-01T11:43:33;5.15;;;3.00;;
22711;SDS011;11523;50.390;8.072;2023-06-01T11:46:03;4.28;;;3.00;;
22711;SDS011;11523;50.390;8.072;2023-06-01T11:48:29;6.68;;;3.28;;
22711;SDS011;11523;50.390;8.072;2023-06-01T11:50:55;5.50;;;3.28;;
22711;SDS011;11523;50.390;8.072;2023-06-01T11:53:21;4.25;;;2.83;;
22711;SDS011;11523;50.390;8.072;2023-06-01T11:55:54;5.05;;;3.20;;
22711;SDS011;11523;50.390;8.072;2023-06-01T11:58:24;9.63;;;2.92;;
22711;SDS011;11523;50.390;8.072;2023-06-01T12:00:50;7.22;;;3.47;;
22711;SDS011;11523;50.390;8.072;2023-06-01T12:03:16;5.45;;;3.13;;
22711;SDS011;11523;50.390;8.072;2023-06-01T12:05:42;5.35;;;2.90;;
22711;SDS011;11523;50.390;8.072;2023-06-01T12:08:13;5.15;;;2.67;;
22711;SDS011;11523;50.390;8.072;2023-06-01T12:10:40;5.68;;;2.83;;
22711;SDS011;11523;50.390;8.072;2023-06-01T12:13:07;4.90;;;2.47;;
22711;SDS011;11523;50.390;8.072;2023-06-01T12:15:33;5.60;;;2.80;;
22711;SDS011;11523;50.390;8.072;2023-06-01T12:17:59;5.35;;;2.80;;
22711;SDS011;11523;50.390;8.072;2023-06-01T12:20:32;5.40;;;3.00;;
22711;SDS011;11523;50.390;8.072;2023-06-01T12:23:00;10.02;;;3.40;;
22711;SDS011;11523;50.390;8.072;2023-06-01T12:25:28;5.07;;;2.88;;
22711;SDS011;11523;50.390;8.072;2023-06-01T12:28:05;4.22;;;3.10;;
22711;SDS011;11523;50.390;8.072;2023-06-01T12:30:32;5.25;;;3.05;;
22711;SDS011;11523;50.390;8.072;2023-06-01T12:32:58;10.30;;;2.97;;
22711;SDS011;11523;50.390;8.072;2023-06-01T12:35:25;6.35;;;3.35;;
22711;SDS011;11523;50.390;8.072;2023-06-01T12:38:08;5.88;;;2.80;;
22711;SDS011;11523;50.390;8.072;2023-06-01T12:40:37;7.32;;;2.67;;
22711;SDS011;11523;50.390;8.072;2023-06-01T12:43:04;5.47;;;2.70;;
22711;SDS011;11523;50.390;8.072;2023-06-01T12:45:37;6.85;;;2.60;;
22711;SDS011;11523;50.390;8.072;2023-06-01T12:48:04;3.30;;;2.50;;
22711;SDS011;11523;50.390;8.072;2023-06-01T12:50:30;4.15;;;2.63;;
22711;SDS011;11523;50.390;8.072;2023-06-01T12:52:56;4.55;;;2.70;;
22711;SDS011;11523;50.390;8.072;2023-06-01T12:55:22;6.05;;;2.85;;
22711;SDS011;11523;50.390;8.072;2023-06-01T12:57:51;4.97;;;2.83;;
22711;SDS011;11523;50.390;8.072;2023-06-01T13:00:18;5.65;;;2.70;;
22711;SDS011;11523;50.390;8.072;2023-06-01T13:02:44;7.90;;;2.78;;
22711;SDS011;11523;50.390;8.072;2023-06-01T13:05:14;4.65;;;2.85;;
22711;SDS011;11523;50.390;8.072;2023-06-01T13:07:44;4.40;;;3.10;;
22711;SDS011;11523;50.390;8.072;2023-06-01T13:10:10;6.57;;;3.00;;
22711;SDS011;11523;50.390;8.072;2023-06-01T13:12:36;4.22;;;3.50;;
22711;SDS011;11523;50.390;8.072;2023-06-01T13:15:02;7.63;;;3.55;;
22711;SDS011;11523;50.390;8.072;2023-06-01T13:17:28;5.63;;;3.63;;
22711;SDS011;11523;50.390;8.072;2023-06-01T13:19:54;6.38;;;3.80;;
22711;SDS011;11523;50.390;8.072;2023-06-01T13:22:20;3.80;;;3.10;;
22711;SDS011;11523;50.390;8.072;2023-06-01T13:24:47;5.47;;;3.03;;
22711;SDS011;11523;50.390;8.072;2023-06-01T13:27:13;6.90;;;3.55;;
22711;SDS011;11523;50.390;8.072;2023-06-01T13:29:39;4.88;;;3.63;;
22711;SDS011;11523;50.390;8.072;2023-06-01T13:32:05;4.65;;;4.07;;
22711;SDS011;11523;50.390;8.072;2023-06-01T13:34:31;4.22;;;3.78;;
22711;SDS011;11523;50.390;8.072;2023-06-01T13:36:58;5.82;;;4.43;;
22711;SDS011;11523;50.390;8.072;2023-06-01T13:39:24;8.07;;;4.80;;
22711;SDS011;11523;50.390;8.072;2023-06-01T13:41:50;6.90;;;4.32;;
22711;SDS011;11523;50.390;8.072;2023-06-01T13:44:16;7.30;;;4.70;;
22711;SDS011;11523;50.390;8.072;2023-06-01T13:46:42;7.80;;;4.80;;
22711;SDS011;11523;50.390;8.072;2023-06-01T13:49:08;5.05;;;4.57;;
22711;SDS011;11523;50.390;8.072;2023-06-01T13:51:35;7.00;;;4.88;;
22711;SDS011;11523;50.390;8.072;2023-06-01T13:54:02;5.32;;;4.78;;
22711;SDS011;11523;50.390;8.072;2023-06-01T13:56:28;8.80;;;4.85;;
22711;SDS011;11523;50.390;8.072;2023-06-01T13:58:54;8.18;;;5.35;;
22711;SDS011;11523;50.390;8.072;2023-06-01T14:01:20;5.80;;;5.25;;
22711;SDS011;11523;50.390;8.072;2023-06-01T14:03:46;8.35;;;5.10;;
22711;SDS011;11523;50.390;8.072;2023-06-01T14:06:12;6.50;;;4.78;;
22711;SDS011;11523;50.390;8.072;2023-06-01T14:08:39;5.43;;;4.55;;
22711;SDS011;11523;50.390;8.072;2023-06-01T14:11:05;7.65;;;5.07;;
22711;SDS011;11523;50.390;8.072;2023-06-01T14:13:31;5.78;;;5.07;;
22711;SDS011;11523;50.390;8.072;2023-06-01T14:15:57;8.15;;;5.68;;
22711;SDS011;11523;50.390;8.072;2023-06-01T14:18:23;7.78;;;5.95;;
22711;SDS011;11523;50.390;8.072;2023-06-01T14:20:49;6.80;;;5.57;;
22711;SDS011;11523;50.390;8.072;2023-06-01T14:23:15;6.50;;;5.93;;
22711;SDS011;11523;50.390;8.072;2023-06-01T14:25:41;9.75;;;6.05;;
22711;SDS011;11523;50.390;8.072;2023-06-01T14:28:07;7.93;;;6.70;;
22711;SDS011;11523;50.390;8.072;2023-06-01T14:30:33;7.68;;;6.88;;
22711;SDS011;11523;50.390;8.072;2023-06-01T14:32:59;7.88;;;6.65;;
22711;SDS011;11523;50.390;8.072;2023-06-01T14:35:28;7.55;;;6.85;;
22711;SDS011;11523;50.390;8.072;2023-06-01T14:37:54;7.68;;;6.90;;
22711;SDS011;11523;50.390;8.072;2023-06-01T14:40:20;7.32;;;6.63;;
22711;SDS011;11523;50.390;8.072;2023-06-01T14:42:46;7.43;;;6.72;;
22711;SDS011;11523;50.390;8.072;2023-06-01T14:45:12;8.70;;;7.82;;
22711;SDS011;11523;50.390;8.072;2023-06-01T14:47:38;9.30;;;7.47;;
22711;SDS011;11523;50.390;8.072;2023-06-01T14:50:06;13.02;;;8.18;;
22711;SDS011;11523;50.390;8.072;2023-06-01T14:52:32;7.75;;;6.95;;
22711;SDS011;11523;50.390;8.072;2023-06-01T14:54:58;7.93;;;7.10;;
22711;SDS011;11523;50.390;8.072;2023-06-01T14:57:24;7.57;;;6.75;;
22711;SDS011;11523;50.390;8.072;2023-06-01T14:59:50;7.95;;;7.22;;
22711;SDS011;11523;50.390;8.072;2023-06-01T15:02:16;7.38;;;6.68;;
22711;SDS011;11523;50.390;8.072;2023-06-01T15:04:43;8.57;;;6.15;;
22711;SDS011;11523;50.390;8.072;2023-06-01T15:07:10;9.73;;;7.07;;
22711;SDS011;11523;50.390;8.072;2023-06-01T15:09:36;10.98;;;7.45;;
22711;SDS011;11523;50.390;8.072;2023-06-01T15:12:02;11.13;;;6.80;;
22711;SDS011;11523;50.390;8.072;2023-06-01T15:14:28;7.53;;;6.50;;
22711;SDS011;11523;50.390;8.072;2023-06-01T15:16:54;8.02;;;7.05;;
22711;SDS011;11523;50.390;8.072;2023-06-01T15:19:20;7.93;;;7.07;;
22711;SDS011;11523;50.390;8.072;2023-06-01T15:21:46;10.90;;;7.18;;
22711;SDS011;11523;50.390;8.072;2023-06-01T15:24:11;8.00;;;7.15;;
22711;SDS011;11523;50.390;8.072;2023-06-01T15:26:37;8.30;;;7.40;;
22711;SDS011;11523;50.390;8.072;2023-06-01T15:29:03;8.95;;;8.05;;
22711;SDS011;11523;50.390;8.072;2023-06-01T15:31:29;8.55;;;7.53;;
22711;SDS011;11523;50.390;8.072;2023-06-01T15:33:55;8.85;;;7.78;;
22711;SDS011;11523;50.390;8.072;2023-06-01T15:36:21;9.55;;;7.43;;
22711;SDS011;11523;50.390;8.072;2023-06-01T15:38:47;8.48;;;7.68;;
22711;SDS011;11523;50.390;8.072;2023-06-01T15:41:13;9.07;;;7.68;;
22711;SDS011;11523;50.390;8.072;2023-06-01T15:43:39;9.57;;;7.32;;
22711;SDS011;11523;50.390;8.072;2023-06-01T15:46:05;10.68;;;7.47;;
22711;SDS011;11523;50.390;8.072;2023-06-01T15:48:31;8.50;;;7.47;;
22711;SDS011;11523;50.390;8.072;2023-06-01T15:50:57;8.88;;;7.35;;
22711;SDS011;11523;50.390;8.072;2023-06-01T15:53:23;7.60;;;6.93;;
22711;SDS011;11523;50.390;8.072;2023-06-01T15:55:49;8.43;;;7.50;;
22711;SDS011;11523;50.390;8.072;2023-06-01T15:58:15;8.52;;;7.68;;
22711;SDS011;11523;50.390;8.072;2023-06-01T16:00:42;11.40;;;8.13;;
22711;SDS011;11523;50.390;8.072;2023-06-01T16:03:08;9.38;;;7.90;;
22711;SDS011;11523;50.390;8.072;2023-06-01T16:05:34;9.02;;;8.13;;
22711;SDS011;11523;50.390;8.072;2023-06-01T16:08:00;9.35;;;8.40;;
22711;SDS011;11523;50.390;8.072;2023-06-01T16:10:26;8.35;;;7.43;;
22711;SDS011;11523;50.390;8.072;2023-06-01T16:12:54;10.60;;;7.68;;
22711;SDS011;11523;50.390;8.072;2023-06-01T16:15:20;11.10;;;7.70;;
22711;SDS011;11523;50.390;8.072;2023-06-01T16:17:46;8.07;;;7.28;;
22711;SDS011;11523;50.390;8.072;2023-06-01T16:20:12;8.00;;;6.82;;
22711;SDS011;11523;50.390;8.072;2023-06-01T16:22:38;10.77;;;7.15;;
22711;SDS011;11523;50.390;8.072;2023-06-01T16:25:04;8.55;;;7.35;;
22711;SDS011;11523;50.390;8.072;2023-06-01T16:27:30;9.23;;;7.40;;
22711;SDS011;11523;50.390;8.072;2023-06-01T16:29:56;9.75;;;7.47;;
22711;SDS011;11523;50.390;8.072;2023-06-01T16:32:22;8.75;;;7.95;;
22711;SDS011;11523;50.390;8.072;2023-06-01T16:34:50;8.45;;;6.47;;
22711;SDS011;11523;50.390;8.072;2023-06-01T16:37:16;7.47;;;6.78;;
22711;SDS011;11523;50.390;8.072;2023-06-01T16:39:42;8.32;;;6.55;;
22711;SDS011;11523;50.390;8.072;2023-06-01T16:42:08;9.93;;;7.32;;
22711;SDS011;11523;50.390;8.072;2023-06-01T16:44:34;10.02;;;7.00;;
22711;SDS011;11523;50.390;8.072;2023-06-01T16:47:00;8.38;;;6.97;;
22711;SDS011;11523;50.390;8.072;2023-06-01T16:49:26;7.88;;;6.60;;
22711;SDS011;11523;50.390;8.072;2023-06-01T16:51:52;10.43;;;6.70;;
22711;SDS011;11523;50.390;8.072;2023-06-01T16:54:18;7.75;;;6.60;;
22711;SDS011;11523;50.390;8.072;2023-06-01T16:56:44;8.93;;;6.95;;
22711;SDS011;11523;50.390;8.072;2023-06-01T16:59:11;13.73;;;6.97;;
22711;SDS011;11523;50.390;8.072;2023-06-01T17:01:37;9.95;;;6.90;;
22711;SDS011;11523;50.390;8.072;2023-06-01T17:04:03;7.93;;;6.47;;
22711;SDS011;11523;50.390;8.072;2023-06-01T17:06:29;9.93;;;6.72;;
22711;SDS011;11523;50.390;8.072;2023-06-01T17:08:56;8.00;;;6.65;;
22711;SDS011;11523;50.390;8.072;2023-06-01T17:11:26;9.32;;;6.45;;
22711;SDS011;11523;50.390;8.072;2023-06-01T17:13:52;8.13;;;6.43;;
22711;SDS011;11523;50.390;8.072;2023-06-01T17:16:25;7.80;;;6.47;;
22711;SDS011;11523;50.390;8.072;2023-06-01T17:18:51;9.15;;;6.80;;
22711;SDS011;11523;50.390;8.072;2023-06-01T17:21:17;9.20;;;6.30;;
22711;SDS011;11523;50.390;8.072;2023-06-01T17:23:43;7.05;;;6.38;;
22711;SDS011;11523;50.390;8.072;2023-06-01T17:26:08;9.85;;;6.38;;
22711;SDS011;11523;50.390;8.072;2023-06-01T17:28:36;8.73;;;6.53;;
22711;SDS011;11523;50.390;8.072;2023-06-01T17:31:02;6.45;;;5.72;;
22711;SDS011;11523;50.390;8.072;2023-06-01T17:33:28;10.48;;;6.18;;
22711;SDS011;11523;50.390;8.072;2023-06-01T17:36:00;10.38;;;5.88;;
22711;SDS011;11523;50.390;8.072;2023-06-01T17:38:26;6.75;;;5.40;;
22711;SDS011;11523;50.390;8.072;2023-06-01T17:40:52;6.57;;;4.95;;
22711;SDS011;11523;50.390;8.072;2023-06-01T17:43:20;6.35;;;5.18;;
22711;SDS011;11523;50.390;8.072;2023-06-01T17:45:46;8.32;;;5.18;;
22711;SDS011;11523;50.390;8.072;2023-06-01T17:48:11;6.28;;;5.38;;
22711;SDS011;11523;50.390;8.072;2023-06-01T17:50:37;9.45;;;4.80;;
22711;SDS011;11523;50.390;8.072;2023-06-01T17:53:03;7.68;;;5.03;;
22711;SDS011;11523;50.390;8.072;2023-06-01T17:55:29;7.43;;;5.55;;
22711;SDS011;11523;50.390;8.072;2023-06-01T17:57:55;7.63;;;5.40;;
22711;SDS011;11523;50.390;8.072;2023-06-01T18:00:21;7.10;;;5.53;;
22711;SDS011;11523;50.390;8.072;2023-06-01T18:02:47;7.10;;;5.25;;
22711;SDS011;11523;50.390;8.072;2023-06-01T18:05:14;7.82;;;5.65;;
22711;SDS011;11523;50.390;8.072;2023-06-01T18:07:40;6.93;;;5.95;;
22711;SDS011;11523;50.390;8.072;2023-06-01T18:10:07;8.30;;;5.60;;
22711;SDS011;11523;50.390;8.072;2023-06-01T18:12:33;8.15;;;6.00;;
22711;SDS011;11523;50.390;8.072;2023-06-01T18:14:59;7.00;;;5.95;;
22711;SDS011;11523;50.390;8.072;2023-06-01T18:17:26;6.57;;;5.70;;
22711;SDS011;11523;50.390;8.072;2023-06-01T18:19:51;7.47;;;5.88;;
22711;SDS011;11523;50.390;8.072;2023-06-01T18:22:17;7.07;;;5.80;;
22711;SDS011;11523;50.390;8.072;2023-06-01T18:24:43;7.68;;;5.95;;
22711;SDS011;11523;50.390;8.072;2023-06-01T18:27:09;8.00;;;6.13;;
22711;SDS011;11523;50.390;8.072;2023-06-01T18:29:35;7.57;;;5.45;;
22711;SDS011;11523;50.390;8.072;2023-06-01T18:32:01;8.48;;;6.47;;
22711;SDS011;11523;50.390;8.072;2023-06-01T18:34:27;8.63;;;5.88;;
22711;SDS011;11523;50.390;8.072;2023-06-01T18:36:53;10.88;;;6.43;;
22711;SDS011;11523;50.390;8.072;2023-06-01T18:39:19;7.97;;;6.53;;
22711;SDS011;11523;50.390;8.072;2023-06-01T18:41:45;5.88;;;5.28;;
22711;SDS011;11523;50.390;8.072;2023-06-01T18:44:11;8.77;;;5.97;;
22711;SDS011;11523;50.390;8.072;2023-06-01T18:46:37;7.32;;;5.45;;
22711;SDS011;11523;50.390;8.072;2023-06-01T18:49:06;6.70;;;5.47;;
22711;SDS011;11523;50.390;8.072;2023-06-01T18:51:32;6.05;;;4.85;;
22711;SDS011;11523;50.390;8.072;2023-06-01T18:53:58;8.38;;;5.20;;
22711;SDS011;11523;50.390;8.072;2023-06-01T18:56:25;5.85;;;4.90;;
22711;SDS011;11523;50.390;8.072;2023-06-01T18:58:51;6.55;;;4.82;;
22711;SDS011;11523;50.390;8.072;2023-06-01T19:01:17;5.40;;;4.47;;
22711;SDS011;11523;50.390;8.072;2023-06-01T19:03:43;5.82;;;4.80;;
22711;SDS011;11523;50.390;8.072;2023-06-01T19:06:11;6.78;;;5.00;;
22711;SDS011;11523;50.390;8.072;2023-06-01T19:08:37;6.88;;;4.88;;
22711;SDS011;11523;50.390;8.072;2023-06-01T19:11:03;8.05;;;4.75;;
22711;SDS011;11523;50.390;8.072;2023-06-01T19:15:59;5.55;;;4.95;;
22711;SDS011;11523;50.390;8.072;2023-06-01T19:18:28;8.45;;;5.22;;
22711;SDS011;11523;50.390;8.072;2023-06-01T19:21:00;8.73;;;4.97;;
22711;SDS011;11523;50.390;8.072;2023-06-01T19:23:29;5.82;;;4.55;;
22711;SDS011;11523;50.390;8.072;2023-06-01T19:25:55;7.75;;;5.22;;
22711;SDS011;11523;50.390;8.072;2023-06-01T19:28:21;6.50;;;4.95;;
22711;SDS011;11523;50.390;8.072;2023-06-01T19:30:47;6.45;;;5.00;;